Time;durP1;ratioP1;P1;durP2;ratioP2;P2;SDS_P1;SDS_P2;PMS_P1;PMS_P2;Temp;Humidity;BMP_temperature;BMP_pressure;BME280_temperature;BME280_humidity;BME280_pressure;Samples;Min_cycle;Max_cycle;Signal;HPM_P1;HPM_P2
2023/03/03 00:02:02;;;;;;;106.63;48.55;;;;;;;;;;5055970;28;20347;-75
2023/03/03 00:04:27;;;;;;;105.95;46.13;;;;;;;;;;5055867;28;20379;-75
2023/03/03 00:06:53;;;;;;;102.85;45.17;;;;;;;;;;5055827;28;20028;-75
2023/03/03 00:09:18;;;;;;;93.93;42.00;;;;;;;;;;5055940;28;20450;-75
2023/03/03 00:11:44;;;;;;;93.85;42.65;;;;;;;;;;5074106;28;20489;-75
2023/03/03 00:14:21;;;;;;;98.82;44.13;;;;;;;;;;5039403;28;20385;-76
2023/03/03 00:16:48;;;;;;;97.43;44.33;;;;;;;;;;5038232;28;20033;-75
2023/03/03 00:19:17;;;;;;;102.82;42.70;;;;;;;;;;5055787;28;20405;-74
2023/03/03 00:21:47;;;;;;;96.80;44.30;;;;;;;;;;5056002;28;20446;-74
2023/03/03 00:24:13;;;;;;;94.75;40.92;;;;;;;;;;5056068;28;20044;-76
2023/03/03 00:26:39;;;;;;;100.15;42.45;;;;;;;;;;5073521;28;20028;-75
2023/03/03 00:29:34;;;;;;;99.50;42.15;;;;;;;;;;5039268;28;20131;-75
2023/03/03 00:32:21;;;;;;;100.38;42.40;;;;;;;;;;5040557;28;20024;-75
2023/03/03 00:34:47;;;;;;;92.15;41.72;;;;;;;;;;5048951;28;20036;-75
2023/03/03 00:37:27;;;;;;;106.55;46.03;;;;;;;;;;5056101;28;20481;-74
2023/03/03 00:39:53;;;;;;;125.70;52.88;;;;;;;;;;5055811;28;20499;-74
2023/03/03 00:42:18;;;;;;;112.28;48.63;;;;;;;;;;5038909;28;20071;-75
2023/03/03 00:44:48;;;;;;;104.03;47.03;;;;;;;;;;5055798;28;20029;-75
2023/03/03 00:47:31;;;;;;;113.35;49.53;;;;;;;;;;5055767;28;20125;-75
2023/03/03 00:50:05;;;;;;;101.78;46.35;;;;;;;;;;5048710;28;20016;-75
2023/03/03 00:52:35;;;;;;;110.22;46.50;;;;;;;;;;5072932;28;20066;-75
2023/03/03 00:55:01;;;;;;;98.20;45.40;;;;;;;;;;5071899;28;20029;-76
2023/03/03 00:57:27;;;;;;;100.20;44.95;;;;;;;;;;5088909;28;20028;-74
2023/03/03 00:59:52;;;;;;;96.88;44.58;;;;;;;;;;5072059;28;20028;-74
2023/03/03 01:02:17;;;;;;;96.88;43.42;;;;;;;;;;5073251;28;20028;-75
2023/03/03 01:04:44;;;;;;;88.88;40.38;;;;;;;;;;5055282;28;20037;-75
2023/03/03 01:07:09;;;;;;;87.03;40.38;;;;;;;;;;5073299;28;20082;-75
2023/03/03 01:09:35;;;;;;;86.63;41.42;;;;;;;;;;5073213;28;20472;-76
2023/03/03 01:12:00;;;;;;;95.50;41.70;;;;;;;;;;5071978;28;20492;-76
2023/03/03 01:14:26;;;;;;;91.28;40.05;;;;;;;;;;5089105;28;20032;-75
2023/03/03 01:16:51;;;;;;;86.43;38.17;;;;;;;;;;5088746;28;20357;-75
2023/03/03 01:19:16;;;;;;;82.57;38.92;;;;;;;;;;5071936;28;20135;-75
2023/03/03 01:21:42;;;;;;;91.68;38.80;;;;;;;;;;5072085;28;20028;-75
2023/03/03 01:24:07;;;;;;;83.78;38.05;;;;;;;;;;5088275;28;20044;-75
2023/03/03 01:26:33;;;;;;;84.45;37.55;;;;;;;;;;5072168;28;20076;-75
2023/03/03 01:28:58;;;;;;;86.15;38.58;;;;;;;;;;5091752;28;20075;-75
2023/03/03 01:31:24;;;;;;;86.43;39.00;;;;;;;;;;5075822;28;20029;-75
2023/03/03 01:33:49;;;;;;;81.78;36.63;;;;;;;;;;5076950;28;20024;-75
2023/03/03 01:36:14;;;;;;;83.50;36.92;;;;;;;;;;5096040;28;20036;-75
2023/03/03 01:38:40;;;;;;;79.30;36.88;;;;;;;;;;5078552;28;20028;-75
2023/03/03 01:41:05;;;;;;;78.93;35.22;;;;;;;;;;5062129;28;20028;-74
2023/03/03 01:43:32;;;;;;;86.07;34.97;;;;;;;;;;5062214;28;20059;-75
2023/03/03 01:45:57;;;;;;;85.55;37.22;;;;;;;;;;5062322;28;20162;-75
2023/03/03 01:48:35;;;;;;;78.47;35.20;;;;;;;;;;5096768;28;20127;-76
2023/03/03 01:51:01;;;;;;;78.63;34.90;;;;;;;;;;5072660;28;20027;-75
2023/03/03 01:53:35;;;;;;;85.32;35.95;;;;;;;;;;5058073;28;20078;-75
2023/03/03 01:56:02;;;;;;;79.32;35.38;;;;;;;;;;5057858;28;20028;-75
2023/03/03 01:58:29;;;;;;;79.65;35.88;;;;;;;;;;5074879;28;20029;-74
2023/03/03 02:00:58;;;;;;;83.65;35.45;;;;;;;;;;5082947;28;20024;-76
2023/03/03 02:03:23;;;;;;;80.00;35.25;;;;;;;;;;5078265;28;20027;-75
2023/03/03 02:05:50;;;;;;;79.43;35.53;;;;;;;;;;5078141;28;20024;-75
2023/03/03 02:08:16;;;;;;;79.43;35.08;;;;;;;;;;5077672;28;20032;-76
2023/03/03 02:10:41;;;;;;;77.57;34.58;;;;;;;;;;5061642;28;20446;-76
2023/03/03 02:13:07;;;;;;;77.85;35.15;;;;;;;;;;5077946;28;20016;-75
2023/03/03 02:15:36;;;;;;;78.93;35.13;;;;;;;;;;5096085;28;20430;-75
2023/03/03 02:18:19;;;;;;;79.43;36.65;;;;;;;;;;5045257;28;20445;-75
2023/03/03 02:21:15;;;;;;;81.20;35.40;;;;;;;;;;5062025;28;20453;-75
2023/03/03 02:23:50;;;;;;;75.07;34.88;;;;;;;;;;5084028;28;20054;-75
2023/03/03 02:26:17;;;;;;;78.43;35.10;;;;;;;;;;5099822;28;20073;-76
2023/03/03 02:28:43;;;;;;;81.43;35.88;;;;;;;;;;5077888;28;20390;-75
2023/03/03 02:31:12;;;;;;;81.20;36.70;;;;;;;;;;5077733;28;20024;-75
2023/03/03 02:33:38;;;;;;;85.20;37.60;;;;;;;;;;5061149;28;20052;-76
2023/03/03 02:36:04;;;;;;;77.85;35.50;;;;;;;;;;5060027;28;20048;-75
2023/03/03 02:38:35;;;;;;;86.25;38.40;;;;;;;;;;5075365;28;20031;-75
2023/03/03 02:41:39;;;;;;;84.03;37.78;;;;;;;;;;5057026;28;20119;-75
2023/03/03 02:44:05;;;;;;;84.70;35.58;;;;;;;;;;5075487;28;20039;-76
2023/03/03 02:46:35;;;;;;;79.93;37.30;;;;;;;;;;5075401;28;20493;-75
2023/03/03 02:49:01;;;;;;;85.70;38.20;;;;;;;;;;5040996;28;20135;-75
2023/03/03 02:51:27;;;;;;;84.30;37.72;;;;;;;;;;5057806;28;20043;-76
2023/03/03 02:53:52;;;;;;;88.03;38.33;;;;;;;;;;5075647;28;20025;-75
2023/03/03 02:56:18;;;;;;;96.35;40.70;;;;;;;;;;5074050;28;20393;-76
2023/03/03 02:58:43;;;;;;;86.93;39.35;;;;;;;;;;5074198;28;20400;-76
2023/03/03 03:01:09;;;;;;;90.53;39.42;;;;;;;;;;5074032;28;20090;-76
2023/03/03 03:03:34;;;;;;;88.60;38.60;;;;;;;;;;5057197;28;20028;-75
2023/03/03 03:05:59;;;;;;;96.82;38.30;;;;;;;;;;5040584;28;20078;-75
2023/03/03 03:08:25;;;;;;;83.20;37.55;;;;;;;;;;5073699;28;20123;-76
2023/03/03 03:10:50;;;;;;;83.45;36.75;;;;;;;;;;5057374;28;20548;-75
2023/03/03 03:13:16;;;;;;;93.22;39.65;;;;;;;;;;5073705;28;20028;-76
2023/03/03 03:15:44;;;;;;;93.80;37.92;;;;;;;;;;5057234;28;20032;-76
2023/03/03 03:18:10;;;;;;;89.43;39.03;;;;;;;;;;5040733;28;20028;-76
2023/03/03 03:20:36;;;;;;;91.00;39.22;;;;;;;;;;5065442;28;20431;-76
2023/03/03 03:23:02;;;;;;;86.30;38.22;;;;;;;;;;5059407;28;20037;-75
2023/03/03 03:25:27;;;;;;;96.30;40.90;;;;;;;;;;5054638;28;20118;-75
2023/03/03 03:27:53;;;;;;;92.75;39.90;;;;;;;;;;5036807;28;20085;-75
2023/03/03 03:30:19;;;;;;;91.22;40.85;;;;;;;;;;5054450;28;20082;-76
2023/03/03 03:32:45;;;;;;;97.65;40.58;;;;;;;;;;5054352;28;20123;-76
2023/03/03 03:35:10;;;;;;;92.03;40.25;;;;;;;;;;5046413;28;20120;-75
2023/03/03 03:37:36;;;;;;;97.75;40.45;;;;;;;;;;5074317;28;20032;-75
2023/03/03 03:40:02;;;;;;;85.53;39.65;;;;;;;;;;5056587;28;20028;-75
2023/03/03 03:42:27;;;;;;;91.00;41.55;;;;;;;;;;5056434;28;20179;-75
2023/03/03 03:44:52;;;;;;;96.03;41.97;;;;;;;;;;5039940;28;20031;-75
2023/03/03 03:47:18;;;;;;;84.53;40.15;;;;;;;;;;5073957;28;20115;-76
2023/03/03 03:49:43;;;;;;;92.05;41.13;;;;;;;;;;5073863;28;20111;-76
2023/03/03 03:52:09;;;;;;;91.80;40.55;;;;;;;;;;5039474;28;20103;-76
2023/03/03 03:54:34;;;;;;;97.00;41.00;;;;;;;;;;5074078;28;20031;-76
2023/03/03 03:56:59;;;;;;;91.28;42.05;;;;;;;;;;5056304;28;20024;-75
2023/03/03 03:59:25;;;;;;;93.10;41.63;;;;;;;;;;5056675;28;20502;-75
2023/03/03 04:01:50;;;;;;;90.63;41.85;;;;;;;;;;5056107;28;20028;-76
2023/03/03 04:04:16;;;;;;;95.72;42.13;;;;;;;;;;5055895;28;20374;-75
2023/03/03 04:06:41;;;;;;;96.00;42.15;;;;;;;;;;5073898;28;20123;-76
2023/03/03 04:09:07;;;;;;;94.53;40.60;;;;;;;;;;5056112;28;20028;-76
2023/03/03 04:11:32;;;;;;;100.07;43.22;;;;;;;;;;5056434;28;20036;-75
2023/03/03 04:13:58;;;;;;;96.95;43.35;;;;;;;;;;5039935;28;20028;-75
2023/03/03 04:16:24;;;;;;;93.32;41.20;;;;;;;;;;5056011;28;20421;-76
2023/03/03 04:18:50;;;;;;;102.93;43.38;;;;;;;;;;5055634;28;20032;-75
2023/03/03 04:21:15;;;;;;;101.45;43.03;;;;;;;;;;5043894;28;20369;-75
2023/03/03 04:23:40;;;;;;;96.53;43.22;;;;;;;;;;5078779;28;20056;-76
2023/03/03 04:26:07;;;;;;;98.22;42.28;;;;;;;;;;5075811;28;20040;-75
2023/03/03 04:28:32;;;;;;;92.65;39.70;;;;;;;;;;5093555;28;20047;-75
2023/03/03 04:30:57;;;;;;;93.25;42.15;;;;;;;;;;5075774;28;20036;-75
2023/03/03 04:33:23;;;;;;;93.68;41.00;;;;;;;;;;5093869;28;20065;-76
2023/03/03 04:35:48;;;;;;;92.30;41.40;;;;;;;;;;5075582;28;20086;-76
2023/03/03 04:38:14;;;;;;;89.03;40.20;;;;;;;;;;5092599;28;20024;-76
2023/03/03 04:40:40;;;;;;;91.50;41.22;;;;;;;;;;5075864;28;20357;-76
2023/03/03 04:43:06;;;;;;;101.10;42.67;;;;;;;;;;5075733;28;20069;-76
2023/03/03 04:45:31;;;;;;;94.93;41.63;;;;;;;;;;5092516;28;20020;-75
2023/03/03 04:47:57;;;;;;;91.25;41.17;;;;;;;;;;5075561;28;20039;-76
2023/03/03 04:50:22;;;;;;;98.00;42.38;;;;;;;;;;5075775;28;20024;-76
2023/03/03 04:52:48;;;;;;;98.57;41.88;;;;;;;;;;5076144;28;20032;-76
2023/03/03 04:55:15;;;;;;;96.70;43.20;;;;;;;;;;5076498;28;20393;-76
2023/03/03 04:57:41;;;;;;;95.82;41.80;;;;;;;;;;5093849;28;20036;-75
2023/03/03 05:00:07;;;;;;;90.93;40.22;;;;;;;;;;5075759;28;20024;-75
2023/03/03 05:02:32;;;;;;;96.55;41.95;;;;;;;;;;5094297;28;20407;-77
2023/03/03 05:04:58;;;;;;;88.30;40.88;;;;;;;;;;5097056;28;20047;-75
2023/03/03 05:07:23;;;;;;;93.13;42.13;;;;;;;;;;5079545;28;20024;-76
2023/03/03 05:09:49;;;;;;;98.10;42.03;;;;;;;;;;5097941;28;20058;-75
2023/03/03 05:12:14;;;;;;;100.30;42.53;;;;;;;;;;5097858;28;20452;-76
2023/03/03 05:14:40;;;;;;;95.57;41.47;;;;;;;;;;5097573;28;20047;-76
2023/03/03 05:17:05;;;;;;;95.55;43.47;;;;;;;;;;5079007;28;20049;-76
2023/03/03 05:19:31;;;;;;;92.72;42.67;;;;;;;;;;5097599;28;20051;-76
2023/03/03 05:21:57;;;;;;;94.35;43.38;;;;;;;;;;5092764;28;20032;-76
2023/03/03 05:24:23;;;;;;;100.25;43.30;;;;;;;;;;5054673;28;20079;-76
2023/03/03 05:26:48;;;;;;;104.97;43.42;;;;;;;;;;5053116;28;20068;-75
2023/03/03 05:29:14;;;;;;;108.68;44.47;;;;;;;;;;5059157;28;20024;-76
2023/03/03 05:31:39;;;;;;;101.70;44.53;;;;;;;;;;5076856;28;20016;-76
2023/03/03 05:34:04;;;;;;;102.32;44.25;;;;;;;;;;5073964;28;20021;-76
2023/03/03 05:36:30;;;;;;;99.00;43.92;;;;;;;;;;5077177;28;20438;-75
2023/03/03 05:38:55;;;;;;;103.57;44.55;;;;;;;;;;5058562;28;20039;-77
2023/03/03 05:41:21;;;;;;;97.38;44.25;;;;;;;;;;5058643;28;20097;-75
2023/03/03 05:43:46;;;;;;;99.72;43.25;;;;;;;;;;5058645;28;20424;-75
2023/03/03 05:46:12;;;;;;;103.25;43.45;;;;;;;;;;5058436;28;20024;-76
2023/03/03 05:48:37;;;;;;;91.22;41.35;;;;;;;;;;5058345;28;20036;-76
2023/03/03 05:51:03;;;;;;;96.25;41.90;;;;;;;;;;5058762;28;20063;-76
2023/03/03 05:53:28;;;;;;;96.50;42.80;;;;;;;;;;5076314;28;20047;-75
2023/03/03 05:55:54;;;;;;;97.05;41.80;;;;;;;;;;5058385;28;20028;-76
2023/03/03 05:58:20;;;;;;;102.82;43.38;;;;;;;;;;5076443;28;20043;-76
2023/03/03 06:00:45;;;;;;;100.95;42.45;;;;;;;;;;5058184;28;20021;-76
2023/03/03 06:03:11;;;;;;;93.78;41.85;;;;;;;;;;5058307;28;20036;-76
2023/03/03 06:05:36;;;;;;;86.78;40.38;;;;;;;;;;5076161;28;20020;-76
2023/03/03 06:08:02;;;;;;;248.23;104.90;;;;;;;;;;5076391;28;20048;-76
2023/03/03 06:10:27;;;;;;;221.20;88.20;;;;;;;;;;5041707;28;20119;-76
2023/03/03 06:12:53;;;;;;;117.18;56.25;;;;;;;;;;5058381;28;20366;-75
2023/03/03 06:15:20;;;;;;;153.10;72.45;;;;;;;;;;5075576;28;20453;-75
2023/03/03 06:17:46;;;;;;;246.63;132.18;;;;;;;;;;5041625;28;20474;-76
2023/03/03 06:20:11;;;;;;;164.73;80.32;;;;;;;;;;5058092;28;20089;-76
2023/03/03 06:22:37;;;;;;;131.23;63.92;;;;;;;;;;5075888;28;20039;-75
2023/03/03 06:25:02;;;;;;;339.38;179.90;;;;;;;;;;5076194;28;20154;-75
2023/03/03 06:27:28;;;;;;;261.77;144.57;;;;;;;;;;5074615;28;20051;-75
2023/03/03 06:29:53;;;;;;;150.70;74.32;;;;;;;;;;5071485;28;20032;-75
2023/03/03 06:32:19;;;;;;;110.97;48.00;;;;;;;;;;5076076;28;20031;-76
2023/03/03 06:34:45;;;;;;;98.93;44.47;;;;;;;;;;5074038;28;20048;-76
2023/03/03 06:37:10;;;;;;;105.07;47.30;;;;;;;;;;5074352;28;20031;-76
2023/03/03 06:39:35;;;;;;;100.55;43.55;;;;;;;;;;5091226;28;20111;-76
2023/03/03 06:42:01;;;;;;;104.05;43.25;;;;;;;;;;5075365;28;20119;-76
2023/03/03 06:44:26;;;;;;;96.95;42.88;;;;;;;;;;5074052;28;20115;-76
2023/03/03 06:46:52;;;;;;;93.55;42.85;;;;;;;;;;5075083;28;20428;-75
2023/03/03 06:49:17;;;;;;;96.40;42.67;;;;;;;;;;5075235;28;20517;-76
2023/03/03 06:51:45;;;;;;;95.50;41.08;;;;;;;;;;5075131;28;20033;-76
2023/03/03 06:54:30;;;;;;;100.88;42.72;;;;;;;;;;5057540;28;20020;-75
2023/03/03 06:57:00;;;;;;;112.10;48.67;;;;;;;;;;5056228;28;20135;-75
2023/03/03 06:59:26;;;;;;;113.07;52.65;;;;;;;;;;5072355;28;20060;-76
2023/03/03 07:01:51;;;;;;;98.28;45.35;;;;;;;;;;5089644;28;20052;-76
2023/03/03 07:04:19;;;;;;;105.13;48.13;;;;;;;;;;5072260;28;20034;-75
2023/03/03 07:06:45;;;;;;;103.40;49.05;;;;;;;;;;5073365;28;20078;-76
2023/03/03 07:09:22;;;;;;;121.45;57.63;;;;;;;;;;5073356;28;20028;-76
2023/03/03 07:11:49;;;;;;;138.25;70.72;;;;;;;;;;5088601;28;20104;-75
2023/03/03 07:14:18;;;;;;;102.28;46.15;;;;;;;;;;5056132;28;20052;-75
2023/03/03 07:16:43;;;;;;;93.05;41.42;;;;;;;;;;5090933;28;20028;-76
2023/03/03 07:19:20;;;;;;;92.75;42.38;;;;;;;;;;5073417;28;20371;-75
2023/03/03 07:21:45;;;;;;;95.53;45.10;;;;;;;;;;5074394;28;20363;-75
2023/03/03 07:24:17;;;;;;;91.60;42.28;;;;;;;;;;5092140;28;20115;-76
2023/03/03 07:26:43;;;;;;;91.88;41.97;;;;;;;;;;5074351;28;20028;-75
2023/03/03 07:29:13;;;;;;;94.43;41.92;;;;;;;;;;5093321;28;20573;-76
2023/03/03 07:31:39;;;;;;;91.80;43.47;;;;;;;;;;5071238;28;20107;-75
2023/03/03 07:34:21;;;;;;;85.45;39.55;;;;;;;;;;5072763;28;20120;-75
2023/03/03 07:36:48;;;;;;;89.22;39.40;;;;;;;;;;5076485;28;20028;-75
2023/03/03 07:39:31;;;;;;;87.93;37.95;;;;;;;;;;5073778;28;20016;-78
2023/03/03 07:42:21;;;;;;;89.53;37.42;;;;;;;;;;5094097;28;20034;-75
2023/03/03 07:44:47;;;;;;;88.07;37.67;;;;;;;;;;5066405;28;20040;-76
2023/03/03 07:47:27;;;;;;;126.35;53.92;;;;;;;;;;5094227;28;20450;-75
2023/03/03 07:49:54;;;;;;;116.72;49.40;;;;;;;;;;5060583;28;20103;-75
2023/03/03 07:52:25;;;;;;;164.10;88.22;;;;;;;;;;5094052;28;20032;-76
2023/03/03 07:54:51;;;;;;;145.50;76.28;;;;;;;;;;5076530;28;20024;-76
2023/03/03 07:57:26;;;;;;;117.00;49.95;;;;;;;;;;5059182;28;20362;-76
2023/03/03 08:00:01;;;;;;;110.68;46.92;;;;;;;;;;5094246;28;20067;-75
2023/03/03 08:02:51;;;;;;;119.90;49.55;;;;;;;;;;5094018;28;20035;-76
2023/03/03 08:05:36;;;;;;;117.32;49.38;;;;;;;;;;5077614;28;20089;-75
2023/03/03 08:08:20;;;;;;;89.57;41.42;;;;;;;;;;5076090;28;20035;-76
2023/03/03 08:10:49;;;;;;;100.00;43.45;;;;;;;;;;5093940;28;20036;-76
2023/03/03 08:13:16;;;;;;;102.35;45.90;;;;;;;;;;5077014;28;20052;-75
2023/03/03 08:15:41;;;;;;;97.28;43.17;;;;;;;;;;5093948;28;20472;-75
2023/03/03 08:18:24;;;;;;;91.07;42.35;;;;;;;;;;5076069;28;20028;-75
2023/03/03 08:20:55;;;;;;;90.45;40.13;;;;;;;;;;5059113;28;20154;-76
2023/03/03 08:23:20;;;;;;;86.78;38.92;;;;;;;;;;5056704;28;20029;-76
2023/03/03 08:25:46;;;;;;;80.15;37.22;;;;;;;;;;5055729;28;20025;-76
2023/03/03 08:28:12;;;;;;;81.38;37.28;;;;;;;;;;5039460;28;20082;-75
2023/03/03 08:30:38;;;;;;;97.47;45.22;;;;;;;;;;5056178;28;20079;-76
2023/03/03 08:33:04;;;;;;;102.68;52.00;;;;;;;;;;5073941;28;20060;-76
2023/03/03 08:35:29;;;;;;;142.20;79.30;;;;;;;;;;5073785;28;20053;-76
2023/03/03 08:37:55;;;;;;;109.80;54.13;;;;;;;;;;5054946;28;20036;-76
2023/03/03 08:40:20;;;;;;;114.68;51.58;;;;;;;;;;5073459;28;20025;-77
2023/03/03 08:42:46;;;;;;;80.22;38.65;;;;;;;;;;5055770;28;20024;-76
2023/03/03 08:45:11;;;;;;;83.68;38.33;;;;;;;;;;5072669;28;20032;-76
2023/03/03 08:47:37;;;;;;;94.22;41.70;;;;;;;;;;5050424;28;20051;-75
2023/03/03 08:50:03;;;;;;;83.53;37.20;;;;;;;;;;5057858;28;20029;-75
2023/03/03 08:52:28;;;;;;;81.53;36.70;;;;;;;;;;5073341;28;20028;-76
2023/03/03 08:54:54;;;;;;;80.95;36.60;;;;;;;;;;5072421;28;20021;-76
2023/03/03 08:57:19;;;;;;;77.93;36.55;;;;;;;;;;5073638;28;20039;-76
2023/03/03 08:59:46;;;;;;;83.10;37.17;;;;;;;;;;5073621;28;20446;-77
2023/03/03 09:02:12;;;;;;;89.35;38.28;;;;;;;;;;5073590;28;20033;-76
2023/03/03 09:04:37;;;;;;;86.10;38.63;;;;;;;;;;5055557;28;20091;-76
2023/03/03 09:07:02;;;;;;;80.88;38.53;;;;;;;;;;5073348;28;20064;-76
2023/03/03 09:09:28;;;;;;;87.60;39.30;;;;;;;;;;5056430;28;20111;-77
2023/03/03 09:11:58;;;;;;;85.82;38.95;;;;;;;;;;5049175;28;20028;-76
2023/03/03 09:14:26;;;;;;;85.18;38.97;;;;;;;;;;5089054;28;20115;-76
2023/03/03 09:16:52;;;;;;;92.30;42.00;;;;;;;;;;5088498;28;20035;-76
2023/03/03 09:19:29;;;;;;;94.95;42.05;;;;;;;;;;5072481;28;20054;-75
2023/03/03 09:21:56;;;;;;;101.25;42.92;;;;;;;;;;5071877;28;20021;-76
2023/03/03 09:24:31;;;;;;;92.45;39.55;;;;;;;;;;5071895;28;20024;-75
2023/03/03 09:26:57;;;;;;;95.72;42.60;;;;;;;;;;5071979;28;20115;-75
2023/03/03 09:29:30;;;;;;;92.38;42.22;;;;;;;;;;5073202;28;20101;-76
2023/03/03 09:32:00;;;;;;;92.18;42.33;;;;;;;;;;5072333;28;20131;-76
2023/03/03 09:34:35;;;;;;;109.28;50.05;;;;;;;;;;5072039;28;20048;-76
2023/03/03 09:37:01;;;;;;;96.57;42.50;;;;;;;;;;5071780;28;20383;-76
2023/03/03 09:39:29;;;;;;;91.68;41.13;;;;;;;;;;5055217;28;20090;-76
2023/03/03 09:42:16;;;;;;;99.15;42.50;;;;;;;;;;5073700;28;20029;-76
2023/03/03 09:44:41;;;;;;;94.22;40.00;;;;;;;;;;5089277;28;20028;-76
2023/03/03 09:47:25;;;;;;;89.00;40.15;;;;;;;;;;5073151;28;20339;-76
2023/03/03 09:50:12;;;;;;;92.90;41.58;;;;;;;;;;5075487;28;20021;-76
2023/03/03 09:52:52;;;;;;;99.13;43.22;;;;;;;;;;5076537;28;20107;-76
2023/03/03 09:55:45;;;;;;;90.95;41.78;;;;;;;;;;5076497;28;20108;-76
2023/03/03 09:58:35;;;;;;;99.90;43.00;;;;;;;;;;5075272;28;20357;-77
2023/03/03 10:01:16;;;;;;;134.20;50.55;;;;;;;;;;5091890;28;20463;-76
2023/03/03 10:04:00;;;;;;;100.45;45.20;;;;;;;;;;5076570;28;20093;-75
2023/03/03 10:06:38;;;;;;;104.20;45.88;;;;;;;;;;5073913;28;20519;-75
2023/03/03 10:09:08;;;;;;;106.78;44.88;;;;;;;;;;5091723;28;20039;-76
2023/03/03 10:11:40;;;;;;;106.07;43.80;;;;;;;;;;5068223;28;20025;-76
2023/03/03 10:14:15;;;;;;;110.10;46.22;;;;;;;;;;5073537;28;20055;-75
2023/03/03 10:16:40;;;;;;;106.50;47.63;;;;;;;;;;5077596;28;20043;-76
2023/03/03 10:19:47;;;;;;;108.28;45.83;;;;;;;;;;5095281;28;20016;-76
2023/03/03 10:22:23;;;;;;;119.85;49.45;;;;;;;;;;5086861;28;20044;-77
2023/03/03 10:25:26;;;;;;;127.13;53.30;;;;;;;;;;5093443;28;20028;-76
2023/03/03 10:28:01;;;;;;;148.82;58.70;;;;;;;;;;5094838;28;20047;-76
2023/03/03 10:30:53;;;;;;;133.00;51.25;;;;;;;;;;5077301;28;20039;-76
2023/03/03 10:33:45;;;;;;;110.70;47.50;;;;;;;;;;5060339;28;20039;-76
2023/03/03 10:36:21;;;;;;;114.72;47.90;;;;;;;;;;5093639;28;20365;-76
2023/03/03 10:38:54;;;;;;;125.28;50.28;;;;;;;;;;5094764;28;20438;-76
2023/03/03 10:41:50;;;;;;;117.35;48.63;;;;;;;;;;5078706;28;20039;-76
2023/03/03 10:44:54;;;;;;;115.28;47.35;;;;;;;;;;5096024;28;20063;-75
2023/03/03 10:47:48;;;;;;;109.80;46.95;;;;;;;;;;5093024;28;20040;-76
2023/03/03 10:50:43;;;;;;;108.75;45.47;;;;;;;;;;5095686;28;20363;-76
2023/03/03 10:53:17;;;;;;;117.20;51.55;;;;;;;;;;5077778;28;20472;-76
2023/03/03 10:56:03;;;;;;;128.32;51.17;;;;;;;;;;5095833;28;20114;-76
2023/03/03 10:58:35;;;;;;;118.22;50.83;;;;;;;;;;5094322;28;20346;-76
2023/03/03 11:01:13;;;;;;;137.25;57.90;;;;;;;;;;5093011;28;20074;-77
2023/03/03 11:04:05;;;;;;;125.97;54.40;;;;;;;;;;5094586;28;20096;-76
2023/03/03 11:06:55;;;;;;;112.05;50.20;;;;;;;;;;5094790;28;20077;-76
2023/03/03 11:09:47;;;;;;;110.50;49.38;;;;;;;;;;5095638;28;20449;-76
2023/03/03 11:12:28;;;;;;;111.47;49.17;;;;;;;;;;5071338;28;20381;-76
2023/03/03 11:15:31;;;;;;;118.25;49.20;;;;;;;;;;5078362;28;20028;-76
2023/03/03 11:18:17;;;;;;;113.22;48.40;;;;;;;;;;5042284;28;20040;-77
2023/03/03 11:21:04;;;;;;;115.43;46.08;;;;;;;;;;5074511;28;20041;-76
2023/03/03 11:23:50;;;;;;;115.75;48.03;;;;;;;;;;5073644;28;20033;-77
2023/03/03 11:26:25;;;;;;;112.55;48.35;;;;;;;;;;5057261;28;20058;-76
2023/03/03 11:29:03;;;;;;;115.78;48.88;;;;;;;;;;5056729;28;20039;-75
2023/03/03 11:31:41;;;;;;;125.70;52.95;;;;;;;;;;5074561;28;20029;-76
2023/03/03 11:34:12;;;;;;;128.25;52.40;;;;;;;;;;5040488;28;20455;-76
2023/03/03 11:36:43;;;;;;;124.93;51.55;;;;;;;;;;5074521;28;20036;-76
2023/03/03 11:39:09;;;;;;;;;;;;;;;;;;5041381;28;20098;-76
2023/03/03 11:41:45;;;;;;;116.47;50.75;;;;;;;;;;5056827;28;19912;-77
2023/03/03 11:44:36;;;;;;;122.57;48.30;;;;;;;;;;5024466;28;20032;-77
2023/03/03 11:47:10;;;;;;;127.38;48.80;;;;;;;;;;5056971;28;20032;-76
2023/03/03 11:49:37;;;;;;;122.80;49.22;;;;;;;;;;5056663;28;20067;-76
2023/03/03 11:52:38;;;;;;;129.57;49.65;;;;;;;;;;5039979;28;20093;-77
2023/03/03 11:55:17;;;;;;;133.73;49.63;;;;;;;;;;5063516;28;20040;-76
2023/03/03 11:57:59;;;;;;;112.63;47.67;;;;;;;;;;5025903;28;20032;-76
2023/03/03 12:00:30;;;;;;;125.05;49.17;;;;;;;;;;5062635;28;20392;-76
2023/03/03 12:03:09;;;;;;;;;;;;;;;;;;5057855;28;20032;-76
2023/03/03 12:05:34;;;;;;;112.88;42.20;;;;;;;;;;5056924;28;19916;-76
2023/03/03 12:08:09;;;;;;;111.15;44.13;;;;;;;;;;5074556;28;20056;-76
2023/03/03 12:11:03;;;;;;;118.60;47.92;;;;;;;;;;5074640;28;20123;-76
2023/03/03 12:13:48;;;;;;;103.78;43.72;;;;;;;;;;5063867;28;20081;-76
2023/03/03 12:16:22;;;;;;;108.60;43.95;;;;;;;;;;5062173;28;20438;-77
2023/03/03 12:19:06;;;;;;;118.10;46.58;;;;;;;;;;5074309;28;20021;-76
2023/03/03 12:21:59;;;;;;;122.35;46.88;;;;;;;;;;5059406;28;20078;-76
2023/03/03 12:24:36;;;;;;;100.03;43.15;;;;;;;;;;5074051;28;20046;-76
2023/03/03 12:27:06;;;;;;;103.82;40.97;;;;;;;;;;5073912;28;20122;-76
2023/03/03 12:29:54;;;;;;;94.10;37.17;;;;;;;;;;5055914;28;20518;-77
2023/03/03 12:32:51;;;;;;;98.82;39.67;;;;;;;;;;5056286;28;20390;-76
2023/03/03 12:35:26;;;;;;;104.88;42.45;;;;;;;;;;5055974;28;20151;-77
2023/03/03 12:37:51;;;;;;;109.85;43.67;;;;;;;;;;5073953;28;20063;-76
2023/03/03 12:40:23;;;;;;;102.43;38.75;;;;;;;;;;5073964;28;20025;-76
2023/03/03 12:43:04;;;;;;;100.78;39.75;;;;;;;;;;5056469;28;20032;-76
2023/03/03 12:45:48;;;;;;;100.93;41.45;;;;;;;;;;5055552;28;20466;-76
2023/03/03 12:48:37;;;;;;;92.20;36.40;;;;;;;;;;5055831;28;20125;-76
2023/03/03 12:51:24;;;;;;;100.20;38.92;;;;;;;;;;5065475;28;20355;-77
2023/03/03 12:54:07;;;;;;;96.90;40.00;;;;;;;;;;5073781;28;20438;-77
2023/03/03 12:56:53;;;;;;;102.00;40.58;;;;;;;;;;5073687;28;20455;-76
2023/03/03 12:59:30;;;;;;;100.90;39.95;;;;;;;;;;5042775;28;20049;-76
2023/03/03 13:02:17;;;;;;;100.63;39.95;;;;;;;;;;5056048;28;20415;-76
2023/03/03 13:05:30;;;;;;;100.25;40.10;;;;;;;;;;5073733;28;20036;-76
2023/03/03 13:08:13;;;;;;;94.78;36.03;;;;;;;;;;5011637;28;20129;-77
2023/03/03 13:10:44;;;;;;;87.75;36.88;;;;;;;;;;4979274;28;20436;-76
2023/03/03 13:13:21;;;;;;;83.30;35.42;;;;;;;;;;5017129;28;20105;-76
2023/03/03 13:15:47;;;;;;;98.68;38.28;;;;;;;;;;5073297;28;20028;-76
2023/03/03 13:18:26;;;;;;;88.18;36.15;;;;;;;;;;5081874;28;20123;-76
2023/03/03 13:21:01;;;;;;;84.17;35.90;;;;;;;;;;5073209;28;20021;-77
2023/03/03 13:23:45;;;;;;;97.07;37.92;;;;;;;;;;5056295;28;20025;-76
2023/03/03 13:26:22;;;;;;;92.38;39.58;;;;;;;;;;5077107;28;20060;-76
2023/03/03 13:29:08;;;;;;;95.00;38.10;;;;;;;;;;5075705;28;20456;-76
2023/03/03 13:31:38;;;;;;;91.72;38.70;;;;;;;;;;5059524;28;20410;-76
2023/03/03 13:34:03;;;;;;;93.55;38.13;;;;;;;;;;5059129;28;20067;-77
2023/03/03 13:37:11;;;;;;;79.70;34.83;;;;;;;;;;5059185;28;20458;-76
2023/03/03 13:40:16;;;;;;;78.93;34.45;;;;;;;;;;5054437;28;20112;-76
2023/03/03 13:42:58;;;;;;;87.63;34.05;;;;;;;;;;5014937;28;20030;-76
2023/03/03 13:45:34;;;;;;;102.88;40.53;;;;;;;;;;4998389;28;20030;-76
2023/03/03 13:48:17;;;;;;;97.10;39.38;;;;;;;;;;5038820;28;20139;-76
2023/03/03 13:50:56;;;;;;;105.70;41.00;;;;;;;;;;5077094;28;20062;-76
2023/03/03 13:53:52;;;;;;;94.18;39.40;;;;;;;;;;5058914;28;20042;-76
2023/03/03 13:56:38;;;;;;;99.45;37.67;;;;;;;;;;5059237;28;20050;-76
2023/03/03 13:59:16;;;;;;;112.95;40.55;;;;;;;;;;5058420;28;20051;-76
2023/03/03 14:02:04;;;;;;;109.78;39.25;;;;;;;;;;5058907;28;20020;-76
2023/03/03 14:04:47;;;;;;;97.63;38.33;;;;;;;;;;5058567;28;20441;-75
2023/03/03 14:07:15;;;;;;;98.88;37.65;;;;;;;;;;5076534;28;20021;-76
2023/03/03 14:10:01;;;;;;;89.40;36.08;;;;;;;;;;5076739;28;20446;-76
2023/03/03 14:12:56;;;;;;;97.10;38.83;;;;;;;;;;5075774;28;20067;-76
2023/03/03 14:15:37;;;;;;;93.82;36.70;;;;;;;;;;5058703;28;20587;-75
2023/03/03 14:18:25;;;;;;;89.10;36.10;;;;;;;;;;5042264;28;20040;-76
2023/03/03 14:20:54;;;;;;;86.65;36.08;;;;;;;;;;5073576;28;20028;-76
2023/03/03 14:23:37;;;;;;;93.97;36.28;;;;;;;;;;5055117;28;20033;-76
2023/03/03 14:26:07;;;;;;;97.15;36.15;;;;;;;;;;5042047;28;20040;-76
2023/03/03 14:28:40;;;;;;;94.97;35.63;;;;;;;;;;5041457;28;20396;-75
2023/03/03 14:31:20;;;;;;;96.20;36.72;;;;;;;;;;5058511;28;20047;-76
2023/03/03 14:34:14;;;;;;;85.32;33.88;;;;;;;;;;5025813;28;20041;-76
2023/03/03 14:36:41;;;;;;;90.93;34.33;;;;;;;;;;5042605;28;20088;-76
2023/03/03 14:39:31;;;;;;;96.85;36.50;;;;;;;;;;5075664;28;20476;-76
2023/03/03 14:41:58;;;;;;;90.97;37.22;;;;;;;;;;5058180;28;20107;-76
2023/03/03 14:44:34;;;;;;;102.03;38.08;;;;;;;;;;5041396;28;20025;-76